sensor_id;sensor_type;location;lat;lon;timestamp;pressure;altitude;pressure_sealevel;temperature;humidity
54122;BME280;40029;58.708;50.190;2023-01-10T00:03:08;102865.84;;;-16.10;33.61
54122;BME280;40029;58.708;50.190;2023-01-10T00:05:40;102866.22;;;-16.07;33.43
54122;BME280;40029;58.708;50.190;2023-01-10T00:08:15;102859.63;;;-16.21;33.17
54122;BME280;40029;58.708;50.190;2023-01-10T00:10:47;102865.69;;;-16.12;33.45
54122;BME280;40029;58.708;50.190;2023-01-10T00:13:18;102868.88;;;-16.20;33.62
54122;BME280;40029;58.708;50.190;2023-01-10T00:15:54;102869.06;;;-16.11;33.59
54122;BME280;40029;58.708;50.190;2023-01-10T00:18:25;102865.50;;;-16.06;34.26
54122;BME280;40029;58.708;50.190;2023-01-10T00:20:56;102809.31;;;-16.38;33.51
54122;BME280;40029;58.708;50.190;2023-01-10T00:23:27;102861.72;;;-16.38;34.15
54122;BME280;40029;58.708;50.190;2023-01-10T00:25:58;102854.25;;;-16.38;34.19
54122;BME280;40029;58.708;50.190;2023-01-10T00:28:29;102870.31;;;-16.22;33.93
54122;BME280;40029;58.708;50.190;2023-01-10T00:31:04;102884.63;;;-16.00;34.19
54122;BME280;40029;58.708;50.190;2023-01-10T00:33:36;102877.81;;;-16.15;33.87
54122;BME280;40029;58.708;50.190;2023-01-10T00:36:09;102879.94;;;-16.11;34.12
54122;BME280;40029;58.708;50.190;2023-01-10T00:38:40;102889.78;;;-15.91;33.89
54122;BME280;40029;58.708;50.190;2023-01-10T00:41:11;102895.66;;;-15.98;33.67
54122;BME280;40029;58.708;50.190;2023-01-10T00:44:02;102895.31;;;-15.94;33.76
54122;BME280;40029;58.708;50.190;2023-01-10T00:46:36;102906.56;;;-15.83;33.84
54122;BME280;40029;58.708;50.190;2023-01-10T00:49:07;102906.38;;;-15.99;34.33
54122;BME280;40029;58.708;50.190;2023-01-10T00:51:38;102906.94;;;-15.87;33.66
54122;BME280;40029;58.708;50.190;2023-01-10T00:54:10;102907.06;;;-15.93;33.65
54122;BME280;40029;58.708;50.190;2023-01-10T00:56:41;102914.59;;;-15.85;33.48
54122;BME280;40029;58.708;50.190;2023-01-10T00:59:12;102908.84;;;-16.13;34.05
54122;BME280;40029;58.708;50.190;2023-01-10T01:01:43;102914.38;;;-16.16;34.67
54122;BME280;40029;58.708;50.190;2023-01-10T01:04:14;102920.38;;;-16.28;35.03
54122;BME280;40029;58.708;50.190;2023-01-10T01:06:46;102922.38;;;-16.25;34.96
54122;BME280;40029;58.708;50.190;2023-01-10T01:09:18;102914.53;;;-16.21;35.20
54122;BME280;40029;58.708;50.190;2023-01-10T01:11:49;102926.66;;;-16.24;34.75
54122;BME280;40029;58.708;50.190;2023-01-10T01:14:21;102928.63;;;-16.15;35.00
54122;BME280;40029;58.708;50.190;2023-01-10T01:16:52;102925.03;;;-16.24;34.60
54122;BME280;40029;58.708;50.190;2023-01-10T01:19:23;102929.09;;;-16.31;35.11
54122;BME280;40029;58.708;50.190;2023-01-10T01:21:54;102936.25;;;-16.27;35.03
54122;BME280;40029;58.708;50.190;2023-01-10T01:24:25;102931.59;;;-16.31;35.01
54122;BME280;40029;58.708;50.190;2023-01-10T01:26:56;102926.66;;;-16.24;35.11
54122;BME280;40029;58.708;50.190;2023-01-10T01:29:27;102939.81;;;-16.32;35.54
54122;BME280;40029;58.708;50.190;2023-01-10T01:31:58;102930.53;;;-16.33;34.85
54122;BME280;40029;58.708;50.190;2023-01-10T01:34:29;102929.81;;;-16.32;35.08
54122;BME280;40029;58.708;50.190;2023-01-10T01:37:00;102954.28;;;-16.23;34.82
54122;BME280;40029;58.708;50.190;2023-01-10T01:39:31;102956.22;;;-16.27;35.22
54122;BME280;40029;58.708;50.190;2023-01-10T01:42:03;102951.44;;;-16.26;35.30
54122;BME280;40029;58.708;50.190;2023-01-10T01:44:38;102952.50;;;-16.24;35.03
54122;BME280;40029;58.708;50.190;2023-01-10T01:47:27;102936.72;;;-16.51;35.64
54122;BME280;40029;58.708;50.190;2023-01-10T01:49:58;102968.69;;;-16.34;35.42
54122;BME280;40029;58.708;50.190;2023-01-10T01:52:31;102974.22;;;-16.37;35.70
54122;BME280;40029;58.708;50.190;2023-01-10T01:55:07;102971.53;;;-16.38;35.49
54122;BME280;40029;58.708;50.190;2023-01-10T01:57:38;102972.44;;;-16.31;34.91
54122;BME280;40029;58.708;50.190;2023-01-10T02:00:10;102968.53;;;-16.29;34.83
54122;BME280;40029;58.708;50.190;2023-01-10T02:02:49;102969.38;;;-16.35;34.62
54122;BME280;40029;58.708;50.190;2023-01-10T02:05:21;102973.72;;;-16.20;34.86
54122;BME280;40029;58.708;50.190;2023-01-10T02:07:55;102978.69;;;-16.34;35.12
54122;BME280;40029;58.708;50.190;2023-01-10T02:13:30;102975.09;;;-16.36;35.25
54122;BME280;40029;58.708;50.190;2023-01-10T02:16:03;102981.53;;;-16.31;35.16
54122;BME280;40029;58.708;50.190;2023-01-10T02:18:36;102974.38;;;-16.43;35.06
54122;BME280;40029;58.708;50.190;2023-01-10T02:22:05;102982.16;;;-16.12;34.83
54122;BME280;40029;58.708;50.190;2023-01-10T02:27:12;102971.19;;;-16.27;34.50
54122;BME280;40029;58.708;50.190;2023-01-10T02:32:40;102999.50;;;-16.00;34.83
54122;BME280;40029;58.708;50.190;2023-01-10T02:40:54;102999.50;;;-15.85;34.11
54122;BME280;40029;58.708;50.190;2023-01-10T02:43:36;102953.06;;;-16.12;34.35
54122;BME280;40029;58.708;50.190;2023-01-10T02:46:14;102937.56;;;-16.58;34.99
54122;BME280;40029;58.708;50.190;2023-01-10T02:48:46;102988.13;;;-16.32;34.91
54122;BME280;40029;58.708;50.190;2023-01-10T02:51:27;103008.34;;;-16.16;35.19
54122;BME280;40029;58.708;50.190;2023-01-10T02:59:43;102954.13;;;-16.17;34.77
54122;BME280;40029;58.708;50.190;2023-01-10T03:02:47;103021.13;;;-15.79;34.38
54122;BME280;40029;58.708;50.190;2023-01-10T03:06:01;103021.88;;;-15.66;34.12
54122;BME280;40029;58.708;50.190;2023-01-10T03:11:11;103019.91;;;-15.68;34.50
54122;BME280;40029;58.708;50.190;2023-01-10T03:13:49;103035.59;;;-15.62;34.65
54122;BME280;40029;58.708;50.190;2023-01-10T03:16:27;103024.00;;;-15.47;34.44
54122;BME280;40029;58.708;50.190;2023-01-10T03:19:07;103028.13;;;-15.41;34.18
54122;BME280;40029;58.708;50.190;2023-01-10T03:21:40;103014.41;;;-15.37;33.88
54122;BME280;40029;58.708;50.190;2023-01-10T03:24:16;103034.38;;;-15.30;33.72
54122;BME280;40029;58.708;50.190;2023-01-10T03:26:59;103026.72;;;-15.24;33.85
54122;BME280;40029;58.708;50.190;2023-01-10T03:29:56;103032.94;;;-15.35;34.28
54122;BME280;40029;58.708;50.190;2023-01-10T03:32:30;103036.34;;;-15.34;34.24
54122;BME280;40029;58.708;50.190;2023-01-10T03:35:02;103030.81;;;-15.39;34.02
54122;BME280;40029;58.708;50.190;2023-01-10T03:37:46;103032.03;;;-15.43;33.94
54122;BME280;40029;58.708;50.190;2023-01-10T03:40:39;103027.03;;;-15.57;34.06
54122;BME280;40029;58.708;50.190;2023-01-10T03:43:43;103029.19;;;-15.39;33.85
54122;BME280;40029;58.708;50.190;2023-01-10T03:46:41;103031.16;;;-15.43;33.83
54122;BME280;40029;58.708;50.190;2023-01-10T03:49:14;103045.97;;;-15.45;33.94
54122;BME280;40029;58.708;50.190;2023-01-10T03:51:46;103037.59;;;-15.45;33.95
54122;BME280;40029;58.708;50.190;2023-01-10T03:54:18;103005.44;;;-15.71;34.13
54122;BME280;40029;58.708;50.190;2023-01-10T03:56:50;103049.03;;;-15.40;33.62
54122;BME280;40029;58.708;50.190;2023-01-10T03:59:24;103046.16;;;-15.36;34.00
54122;BME280;40029;58.708;50.190;2023-01-10T04:01:56;103053.47;;;-15.38;33.64
54122;BME280;40029;58.708;50.190;2023-01-10T04:04:27;103051.13;;;-15.50;34.21
54122;BME280;40029;58.708;50.190;2023-01-10T04:06:58;103057.53;;;-15.59;34.01
54122;BME280;40029;58.708;50.190;2023-01-10T04:09:29;103058.25;;;-15.68;34.33
54122;BME280;40029;58.708;50.190;2023-01-10T04:12:00;103057.41;;;-15.54;33.85
54122;BME280;40029;58.708;50.190;2023-01-10T04:14:31;103059.53;;;-15.50;34.44
54122;BME280;40029;58.708;50.190;2023-01-10T04:17:03;103065.75;;;-15.60;33.90
54122;BME280;40029;58.708;50.190;2023-01-10T04:19:34;103074.53;;;-15.64;34.08
54122;BME280;40029;58.708;50.190;2023-01-10T04:22:05;103079.53;;;-15.71;34.81
54122;BME280;40029;58.708;50.190;2023-01-10T04:24:36;103076.44;;;-15.76;34.26
54122;BME280;40029;58.708;50.190;2023-01-10T04:27:07;103068.03;;;-15.91;34.83
54122;BME280;40029;58.708;50.190;2023-01-10T04:29:38;103033.69;;;-16.06;34.77
54122;BME280;40029;58.708;50.190;2023-01-10T04:32:09;103081.44;;;-15.83;34.81
54122;BME280;40029;58.708;50.190;2023-01-10T04:34:40;103079.88;;;-15.68;34.57
54122;BME280;40029;58.708;50.190;2023-01-10T04:37:11;103049.84;;;-15.82;33.99
54122;BME280;40029;58.708;50.190;2023-01-10T04:39:42;103093.41;;;-15.73;34.22
54122;BME280;40029;58.708;50.190;2023-01-10T04:42:15;103097.16;;;-15.77;34.62
54122;BME280;40029;58.708;50.190;2023-01-10T04:44:46;103095.44;;;-15.98;34.74
54122;BME280;40029;58.708;50.190;2023-01-10T04:47:17;103092.97;;;-15.98;34.28
54122;BME280;40029;58.708;50.190;2023-01-10T04:49:48;103091.94;;;-15.85;34.59
54122;BME280;40029;58.708;50.190;2023-01-10T04:52:19;103041.41;;;-16.04;34.14
54122;BME280;40029;58.708;50.190;2023-01-10T04:54:50;103092.16;;;-15.77;34.37
54122;BME280;40029;58.708;50.190;2023-01-10T04:57:21;103110.66;;;-15.89;34.26
54122;BME280;40029;58.708;50.190;2023-01-10T04:59:52;103103.72;;;-15.84;34.37
54122;BME280;40029;58.708;50.190;2023-01-10T05:02:23;103106.41;;;-15.83;33.73
54122;BME280;40029;58.708;50.190;2023-01-10T05:04:54;103001.50;;;-16.38;34.29
54122;BME280;40029;58.708;50.190;2023-01-10T05:07:25;103071.72;;;-16.01;34.16
54122;BME280;40029;58.708;50.190;2023-01-10T05:09:56;103112.69;;;-15.72;34.17
54122;BME280;40029;58.708;50.190;2023-01-10T05:12:27;103101.81;;;-15.73;34.59
54122;BME280;40029;58.708;50.190;2023-01-10T05:14:58;103105.75;;;-15.68;34.03
54122;BME280;40029;58.708;50.190;2023-01-10T05:17:30;103107.19;;;-15.55;34.40
54122;BME280;40029;58.708;50.190;2023-01-10T05:20:01;103105.22;;;-15.58;33.93
54122;BME280;40029;58.708;50.190;2023-01-10T05:22:34;103092.00;;;-15.57;34.18
54122;BME280;40029;58.708;50.190;2023-01-10T05:25:05;103122.03;;;-15.43;34.12
54122;BME280;40029;58.708;50.190;2023-01-10T05:27:40;103112.25;;;-15.41;34.44
54122;BME280;40029;58.708;50.190;2023-01-10T05:30:12;103112.38;;;-15.47;34.29
54122;BME280;40029;58.708;50.190;2023-01-10T05:32:43;103105.63;;;-15.41;33.93
54122;BME280;40029;58.708;50.190;2023-01-10T05:35:14;103114.72;;;-15.34;33.98
54122;BME280;40029;58.708;50.190;2023-01-10T05:37:46;103116.53;;;-15.26;34.06
54122;BME280;40029;58.708;50.190;2023-01-10T05:40:17;103112.44;;;-15.18;33.74
54122;BME280;40029;58.708;50.190;2023-01-10T05:42:48;103106.56;;;-15.19;33.79
54122;BME280;40029;58.708;50.190;2023-01-10T05:45:20;103092.78;;;-15.29;33.62
54122;BME280;40029;58.708;50.190;2023-01-10T05:47:51;103106.19;;;-15.22;33.87
54122;BME280;40029;58.708;50.190;2023-01-10T05:50:22;103108.88;;;-15.20;33.81
54122;BME280;40029;58.708;50.190;2023-01-10T05:52:53;103113.34;;;-15.18;33.84
54122;BME280;40029;58.708;50.190;2023-01-10T05:55:24;103112.63;;;-15.17;33.55
54122;BME280;40029;58.708;50.190;2023-01-10T05:57:55;103108.88;;;-15.20;33.51
54122;BME280;40029;58.708;50.190;2023-01-10T06:00:26;103104.94;;;-15.18;33.73
54122;BME280;40029;58.708;50.190;2023-01-10T06:02:57;103019.72;;;-15.63;34.06
54122;BME280;40029;58.708;50.190;2023-01-10T06:05:28;103108.53;;;-15.09;33.51
54122;BME280;40029;58.708;50.190;2023-01-10T06:07:59;103106.38;;;-15.13;33.72
54122;BME280;40029;58.708;50.190;2023-01-10T06:10:30;103103.53;;;-15.16;33.45
54122;BME280;40029;58.708;50.190;2023-01-10T06:13:01;103086.38;;;-15.20;33.82
54122;BME280;40029;58.708;50.190;2023-01-10T06:15:35;103096.94;;;-15.01;33.91
54122;BME280;40029;58.708;50.190;2023-01-10T06:18:06;103101.22;;;-15.15;33.21
54122;BME280;40029;58.708;50.190;2023-01-10T06:20:39;103097.63;;;-15.09;33.37
54122;BME280;40029;58.708;50.190;2023-01-10T06:23:11;103103.38;;;-15.03;33.50
54122;BME280;40029;58.708;50.190;2023-01-10T06:25:42;103098.56;;;-14.95;33.43
54122;BME280;40029;58.708;50.190;2023-01-10T06:28:13;103100.84;;;-14.96;34.00
54122;BME280;40029;58.708;50.190;2023-01-10T06:30:46;103094.78;;;-14.91;33.48
54122;BME280;40029;58.708;50.190;2023-01-10T06:33:17;103042.25;;;-15.27;33.66
54122;BME280;40029;58.708;50.190;2023-01-10T06:35:48;103085.66;;;-15.05;33.73
54122;BME280;40029;58.708;50.190;2023-01-10T06:38:19;103084.78;;;-15.05;33.91
54122;BME280;40029;58.708;50.190;2023-01-10T06:40:50;103087.09;;;-15.00;33.69
54122;BME280;40029;58.708;50.190;2023-01-10T06:43:21;103100.34;;;-14.94;33.40
54122;BME280;40029;58.708;50.190;2023-01-10T06:45:52;103090.84;;;-14.96;33.53
54122;BME280;40029;58.708;50.190;2023-01-10T06:48:23;103093.91;;;-14.99;33.24
54122;BME280;40029;58.708;50.190;2023-01-10T06:50:54;103097.84;;;-14.94;33.38
54122;BME280;40029;58.708;50.190;2023-01-10T06:53:25;103101.75;;;-14.89;33.51
54122;BME280;40029;58.708;50.190;2023-01-10T06:55:56;103108.38;;;-14.89;33.74
54122;BME280;40029;58.708;50.190;2023-01-10T06:58:27;103108.72;;;-14.93;33.51
54122;BME280;40029;58.708;50.190;2023-01-10T07:00:58;103089.44;;;-15.01;33.26
54122;BME280;40029;58.708;50.190;2023-01-10T07:03:29;103059.75;;;-15.13;33.29
54122;BME280;40029;58.708;50.190;2023-01-10T07:06:01;103108.00;;;-14.92;33.26
54122;BME280;40029;58.708;50.190;2023-01-10T07:08:32;103117.81;;;-14.87;33.29
54122;BME280;40029;58.708;50.190;2023-01-10T07:11:04;103114.97;;;-14.82;33.65
54122;BME280;40029;58.708;50.190;2023-01-10T07:13:35;103119.28;;;-14.81;33.13
54122;BME280;40029;58.708;50.190;2023-01-10T07:16:08;103103.72;;;-14.79;33.20
54122;BME280;40029;58.708;50.190;2023-01-10T07:18:41;103109.97;;;-14.82;33.19
54122;BME280;40029;58.708;50.190;2023-01-10T07:21:12;103117.66;;;-14.67;33.15
54122;BME280;40029;58.708;50.190;2023-01-10T07:23:50;103126.44;;;-14.84;33.17
54122;BME280;40029;58.708;50.190;2023-01-10T07:26:21;103124.63;;;-14.78;33.63
54122;BME280;40029;58.708;50.190;2023-01-10T07:28:53;103124.47;;;-14.80;33.72
54122;BME280;40029;58.708;50.190;2023-01-10T07:31:25;103136.97;;;-14.80;33.60
54122;BME280;40029;58.708;50.190;2023-01-10T07:33:56;103133.56;;;-14.88;33.32
54122;BME280;40029;58.708;50.190;2023-01-10T07:36:27;103152.84;;;-14.87;33.22
54122;BME280;40029;58.708;50.190;2023-01-10T07:38:58;103152.50;;;-14.82;33.49
54122;BME280;40029;58.708;50.190;2023-01-10T07:41:29;103150.19;;;-14.88;33.57
54122;BME280;40029;58.708;50.190;2023-01-10T07:44:02;103156.25;;;-14.79;32.99
54122;BME280;40029;58.708;50.190;2023-01-10T07:46:33;103151.81;;;-14.81;32.89
54122;BME280;40029;58.708;50.190;2023-01-10T07:49:04;103146.06;;;-15.02;33.01
54122;BME280;40029;58.708;50.190;2023-01-10T07:51:35;103153.22;;;-14.83;33.47
54122;BME280;40029;58.708;50.190;2023-01-10T07:54:06;103156.44;;;-14.99;32.72
54122;BME280;40029;58.708;50.190;2023-01-10T07:56:37;103160.53;;;-14.99;32.88
54122;BME280;40029;58.708;50.190;2023-01-10T07:59:08;103159.28;;;-15.10;33.35
54122;BME280;40029;58.708;50.190;2023-01-10T08:01:39;103164.59;;;-15.21;32.89
54122;BME280;40029;58.708;50.190;2023-01-10T08:04:11;103164.75;;;-15.34;33.46
54122;BME280;40029;58.708;50.190;2023-01-10T08:06:42;103166.00;;;-15.30;33.46
54122;BME280;40029;58.708;50.190;2023-01-10T08:09:13;103163.19;;;-15.19;33.62
54122;BME280;40029;58.708;50.190;2023-01-10T08:11:44;103170.13;;;-15.17;33.17
54122;BME280;40029;58.708;50.190;2023-01-10T08:14:15;103104.50;;;-15.57;33.52
54122;BME280;40029;58.708;50.190;2023-01-10T08:16:46;103173.00;;;-15.28;32.97
54122;BME280;40029;58.708;50.190;2023-01-10T08:19:17;103170.63;;;-15.33;33.09
54122;BME280;40029;58.708;50.190;2023-01-10T08:21:48;103177.63;;;-15.17;33.08
54122;BME280;40029;58.708;50.190;2023-01-10T08:24:19;103167.63;;;-15.17;33.21
54122;BME280;40029;58.708;50.190;2023-01-10T08:26:50;103161.91;;;-15.23;32.99
54122;BME280;40029;58.708;50.190;2023-01-10T08:29:21;103163.56;;;-15.09;32.73
54122;BME280;40029;58.708;50.190;2023-01-10T08:31:52;103168.19;;;-15.12;32.81
54122;BME280;40029;58.708;50.190;2023-01-10T08:34:23;103169.06;;;-15.19;33.00
54122;BME280;40029;58.708;50.190;2023-01-10T08:36:55;103174.97;;;-15.18;32.75
54122;BME280;40029;58.708;50.190;2023-01-10T08:39:28;103156.94;;;-15.08;32.95
54122;BME280;40029;58.708;50.190;2023-01-10T08:42:00;103162.16;;;-15.07;33.18
54122;BME280;40029;58.708;50.190;2023-01-10T08:44:31;103169.63;;;-15.00;32.52
54122;BME280;40029;58.708;50.190;2023-01-10T08:47:02;103156.06;;;-15.02;32.73
54122;BME280;40029;58.708;50.190;2023-01-10T08:49:33;103172.50;;;-14.97;32.92
54122;BME280;40029;58.708;50.190;2023-01-10T08:52:04;103164.25;;;-15.17;32.83
54122;BME280;40029;58.708;50.190;2023-01-10T08:54:36;103174.25;;;-15.17;32.66
54122;BME280;40029;58.708;50.190;2023-01-10T08:57:07;103172.63;;;-15.17;32.99
54122;BME280;40029;58.708;50.190;2023-01-10T08:59:38;103165.69;;;-15.12;32.59
54122;BME280;40029;58.708;50.190;2023-01-10T09:02:12;103178.00;;;-15.14;32.27
54122;BME280;40029;58.708;50.190;2023-01-10T09:04:44;103160.81;;;-15.25;32.23
54122;BME280;40029;58.708;50.190;2023-01-10T09:07:15;103161.88;;;-15.30;32.50
54122;BME280;40029;58.708;50.190;2023-01-10T09:09:46;103174.28;;;-15.10;32.49
54122;BME280;40029;58.708;50.190;2023-01-10T09:12:17;103126.88;;;-15.30;32.56
54122;BME280;40029;58.708;50.190;2023-01-10T09:15:07;103178.59;;;-15.02;32.35
54122;BME280;40029;58.708;50.190;2023-01-10T09:17:38;103182.00;;;-14.87;31.97
54122;BME280;40029;58.708;50.190;2023-01-10T09:20:10;103184.50;;;-14.80;31.76
54122;BME280;40029;58.708;50.190;2023-01-10T09:22:41;103185.22;;;-14.74;31.99
54122;BME280;40029;58.708;50.190;2023-01-10T09:25:12;103186.47;;;-14.70;31.93
54122;BME280;40029;58.708;50.190;2023-01-10T09:27:43;103177.50;;;-14.97;31.67
54122;BME280;40029;58.708;50.190;2023-01-10T09:30:15;103193.63;;;-14.80;31.83
54122;BME280;40029;58.708;50.190;2023-01-10T09:32:50;103195.38;;;-14.87;31.75
54122;BME280;40029;58.708;50.190;2023-01-10T09:35:22;103141.44;;;-14.99;31.77
54122;BME280;40029;58.708;50.190;2023-01-10T09:37:58;103200.59;;;-14.71;31.90
54122;BME280;40029;58.708;50.190;2023-01-10T09:41:26;103192.56;;;-14.61;31.46
54122;BME280;40029;58.708;50.190;2023-01-10T09:51:50;103199.19;;;-14.62;31.77
54122;BME280;40029;58.708;50.190;2023-01-10T09:54:32;103212.59;;;-14.68;32.05
54122;BME280;40029;58.708;50.190;2023-01-10T09:57:05;103207.03;;;-14.66;31.72
54122;BME280;40029;58.708;50.190;2023-01-10T09:59:40;103205.09;;;-14.68;31.84
54122;BME280;40029;58.708;50.190;2023-01-10T10:04:48;103216.72;;;-14.54;31.42
54122;BME280;40029;58.708;50.190;2023-01-10T10:07:25;103210.47;;;-14.51;31.58
54122;BME280;40029;58.708;50.190;2023-01-10T10:09:56;103214.72;;;-14.57;31.98
54122;BME280;40029;58.708;50.190;2023-01-10T10:12:55;103211.00;;;-14.68;31.51
54122;BME280;40029;58.708;50.190;2023-01-10T10:15:45;103164.66;;;-14.93;31.19
54122;BME280;40029;58.708;50.190;2023-01-10T10:21:23;103205.03;;;-14.97;31.01
54122;BME280;40029;58.708;50.190;2023-01-10T10:32:04;103218.38;;;-15.18;31.20
54122;BME280;40029;58.708;50.190;2023-01-10T10:34:45;103226.44;;;-15.20;31.25
54122;BME280;40029;58.708;50.190;2023-01-10T10:37:32;103212.03;;;-15.43;31.39
54122;BME280;40029;58.708;50.190;2023-01-10T10:40:18;103237.28;;;-15.27;31.42
54122;BME280;40029;58.708;50.190;2023-01-10T10:42:52;103225.31;;;-15.22;31.48
54122;BME280;40029;58.708;50.190;2023-01-10T10:45:53;103220.66;;;-15.26;31.25
54122;BME280;40029;58.708;50.190;2023-01-10T10:48:35;103225.16;;;-15.24;31.21
54122;BME280;40029;58.708;50.190;2023-01-10T10:54:11;103209.25;;;-15.24;31.82
54122;BME280;40029;58.708;50.190;2023-01-10T10:56:45;103230.72;;;-15.19;31.53
54122;BME280;40029;58.708;50.190;2023-01-10T10:59:18;103216.91;;;-15.30;31.81
54122;BME280;40029;58.708;50.190;2023-01-10T11:01:50;103218.34;;;-15.32;32.02
54122;BME280;40029;58.708;50.190;2023-01-10T11:04:22;103227.06;;;-15.35;32.33
54122;BME280;40029;58.708;50.190;2023-01-10T11:06:53;103227.25;;;-15.34;32.49
54122;BME280;40029;58.708;50.190;2023-01-10T11:09:25;103238.13;;;-15.33;32.08
54122;BME280;40029;58.708;50.190;2023-01-10T11:12:02;103228.59;;;-15.50;32.32
54122;BME280;40029;58.708;50.190;2023-01-10T11:14:47;103231.69;;;-15.46;32.60
54122;BME280;40029;58.708;50.190;2023-01-10T11:17:27;103225.25;;;-15.44;32.25
54122;BME280;40029;58.708;50.190;2023-01-10T11:20:04;103222.38;;;-15.47;32.27
54122;BME280;40029;58.708;50.190;2023-01-10T11:22:44;103224.13;;;-15.53;32.17
54122;BME280;40029;58.708;50.190;2023-01-10T11:25:19;103239.47;;;-15.57;32.45
54122;BME280;40029;58.708;50.190;2023-01-10T11:27:53;103238.19;;;-15.60;32.13
54122;BME280;40029;58.708;50.190;2023-01-10T11:30:32;103242.69;;;-15.58;32.42
54122;BME280;40029;58.708;50.190;2023-01-10T11:33:07;103217.28;;;-15.75;32.14
54122;BME280;40029;58.708;50.190;2023-01-10T11:36:03;103229.91;;;-15.81;32.50
54122;BME280;40029;58.708;50.190;2023-01-10T11:38:35;103232.72;;;-15.85;32.27
54122;BME280;40029;58.708;50.190;2023-01-10T11:43:49;103234.03;;;-16.01;32.50
54122;BME280;40029;58.708;50.190;2023-01-10T11:46:21;103244.00;;;-16.08;32.80
54122;BME280;40029;58.708;50.190;2023-01-10T11:49:02;103195.19;;;-16.46;32.96
54122;BME280;40029;58.708;50.190;2023-01-10T11:51:42;103248.75;;;-16.17;32.82
54122;BME280;40029;58.708;50.190;2023-01-10T11:54:23;103252.78;;;-16.25;32.85
54122;BME280;40029;58.708;50.190;2023-01-10T11:57:02;103248.25;;;-16.34;33.30
54122;BME280;40029;58.708;50.190;2023-01-10T11:59:36;103245.75;;;-16.34;32.95
54122;BME280;40029;58.708;50.190;2023-01-10T12:02:42;103248.94;;;-16.35;33.06
54122;BME280;40029;58.708;50.190;2023-01-10T12:05:08;103244.25;;;-16.40;33.25
54122;BME280;40029;58.708;50.190;2023-01-10T12:08:00;103242.31;;;-16.42;33.43
54122;BME280;40029;58.708;50.190;2023-01-10T12:10:35;103241.09;;;-16.38;32.78
54122;BME280;40029;58.708;50.190;2023-01-10T12:13:13;103247.28;;;-16.42;33.05
54122;BME280;40029;58.708;50.190;2023-01-10T12:15:45;103240.31;;;-16.45;33.20
54122;BME280;40029;58.708;50.190;2023-01-10T12:18:17;103243.69;;;-16.44;33.38
54122;BME280;40029;58.708;50.190;2023-01-10T12:20:51;103244.59;;;-16.44;33.19
54122;BME280;40029;58.708;50.190;2023-01-10T12:23:22;103256.81;;;-16.52;33.57
54122;BME280;40029;58.708;50.190;2023-01-10T12:25:55;103246.06;;;-16.58;33.14
54122;BME280;40029;58.708;50.190;2023-01-10T12:28:29;103251.94;;;-16.58;33.34
54122;BME280;40029;58.708;50.190;2023-01-10T12:31:01;103253.38;;;-16.60;33.09
54122;BME280;40029;58.708;50.190;2023-01-10T12:33:37;103253.16;;;-16.61;33.34
54122;BME280;40029;58.708;50.190;2023-01-10T12:36:21;103253.28;;;-16.67;33.22
54122;BME280;40029;58.708;50.190;2023-01-10T12:39:17;103257.06;;;-16.63;33.54
54122;BME280;40029;58.708;50.190;2023-01-10T12:44:44;103250.56;;;-16.76;33.71
54122;BME280;40029;58.708;50.190;2023-01-10T12:47:37;103256.19;;;-16.84;34.39
54122;BME280;40029;58.708;50.190;2023-01-10T12:52:53;103256.50;;;-16.88;34.98
54122;BME280;40029;58.708;50.190;2023-01-10T12:55:32;103248.00;;;-16.63;34.26
54122;BME280;40029;58.708;50.190;2023-01-10T12:58:04;103249.50;;;-16.71;34.48
54122;BME280;40029;58.708;50.190;2023-01-10T13:00:39;103239.16;;;-16.54;34.26
54122;BME280;40029;58.708;50.190;2023-01-10T13:03:23;103243.00;;;-16.43;34.39
54122;BME280;40029;58.708;50.190;2023-01-10T13:05:59;103233.78;;;-16.37;34.75
54122;BME280;40029;58.708;50.190;2023-01-10T13:08:33;103213.31;;;-16.34;34.51
54122;BME280;40029;58.708;50.190;2023-01-10T13:11:11;103240.94;;;-16.13;34.31
54122;BME280;40029;58.708;50.190;2023-01-10T13:13:50;103230.88;;;-16.20;34.07
54122;BME280;40029;58.708;50.190;2023-01-10T13:21:41;103240.97;;;-16.06;33.67
54122;BME280;40029;58.708;50.190;2023-01-10T13:24:25;103229.00;;;-16.08;33.73
54122;BME280;40029;58.708;50.190;2023-01-10T13:27:03;103190.84;;;-16.34;33.76
54122;BME280;40029;58.708;50.190;2023-01-10T13:29:46;103162.22;;;-16.44;33.90
54122;BME280;40029;58.708;50.190;2023-01-10T13:32:28;103265.03;;;-15.86;33.88
54122;BME280;40029;58.708;50.190;2023-01-10T13:35:16;103250.59;;;-15.82;33.39
54122;BME280;40029;58.708;50.190;2023-01-10T13:37:53;103199.94;;;-16.08;33.47
54122;BME280;40029;58.708;50.190;2023-01-10T13:40:33;103109.66;;;-16.65;33.43
54122;BME280;40029;58.708;50.190;2023-01-10T13:51:27;103234.00;;;-15.81;33.58
54122;BME280;40029;58.708;50.190;2023-01-10T13:54:11;103089.72;;;-16.72;34.35
54122;BME280;40029;58.708;50.190;2023-01-10T13:56:54;103218.59;;;-15.92;34.49
54122;BME280;40029;58.708;50.190;2023-01-10T14:02:24;103142.16;;;-16.38;34.73
54122;BME280;40029;58.708;50.190;2023-01-10T14:05:06;103217.19;;;-15.90;34.56
54122;BME280;40029;58.708;50.190;2023-01-10T14:07:47;103207.50;;;-16.01;34.72
54122;BME280;40029;58.708;50.190;2023-01-10T14:10:22;103235.28;;;-15.78;34.81
54122;BME280;40029;58.708;50.190;2023-01-10T14:13:00;103147.53;;;-16.28;34.96
54122;BME280;40029;58.708;50.190;2023-01-10T14:15:53;103196.06;;;-15.99;35.67
54122;BME280;40029;58.708;50.190;2023-01-10T14:18:30;103207.72;;;-15.92;36.59
54122;BME280;40029;58.708;50.190;2023-01-10T14:21:08;103208.28;;;-15.87;36.48
54122;BME280;40029;58.708;50.190;2023-01-10T14:23:49;103203.75;;;-15.97;36.98